Terminal Aerodrome Forecast
Issued by NWS

Home | Current Version | Previous Version | Graphics & Text | Print | Product List | Glossary On
Versions: 1 2 3 4 5 6 7 8 9 10 11 12 13 14 15 16 17 18 19 20 21
500
FTUS42 KMHX 221318 AAC
TAFISO
TAF AMD
KISO 221318Z 2213/2312 VRB04KT P6SM -SHRA OVC010
      TEMPO 2213/2215 2SM BR OVC007
     FM221800 18004KT P6SM VCSH BKN010
     FM230100 09010KT 4SM SHRA VCTS OVC010CB
     FM230700 17009KT P6SM BKN030
     FM230900 19009KT P6SM SCT050
      AMD LTD TO CLD VIS AND WIND=

USA.gov is the U.S. government's official web portal to all federal, state and local government web resources and services.